Time;durP1;ratioP1;P1;durP2;ratioP2;P2;SDS_P1;SDS_P2;PMS_P1;PMS_P2;Temp;Humidity;BMP_temperature;BMP_pressure;BME280_temperature;BME280_humidity;BME280_pressure;Samples;Min_cycle;Max_cycle;Signal;HPM_P1;HPM_P2
2023/11/22 00:02:19;;;;;;;13.87;7.57;;;;;;;;;;5094111;28;20467;-29
2023/11/22 00:04:44;;;;;;;14.88;8.18;;;;;;;;;;5094013;28;20266;-29
2023/11/22 00:07:09;;;;;;;15.13;8.73;;;;;;;;;;5093799;28;20109;-29
2023/11/22 00:09:35;;;;;;;13.52;7.97;;;;;;;;;;5093747;28;20252;-30
2023/11/22 00:12:00;;;;;;;14.63;8.32;;;;;;;;;;5093921;28;20027;-29
2023/11/22 00:14:25;;;;;;;13.50;8.27;;;;;;;;;;5094216;28;20024;-29
2023/11/22 00:16:51;;;;;;;13.57;8.10;;;;;;;;;;5093659;28;20608;-29
2023/11/22 00:19:18;;;;;;;14.85;7.97;;;;;;;;;;5093824;28;20008;-29
2023/11/22 00:21:43;;;;;;;17.33;8.00;;;;;;;;;;5093824;28;20016;-29
2023/11/22 00:24:08;;;;;;;12.40;7.63;;;;;;;;;;5094180;28;20071;-29
2023/11/22 00:26:33;;;;;;;13.10;7.80;;;;;;;;;;5093783;28;20250;-29
2023/11/22 00:28:59;;;;;;;17.73;8.37;;;;;;;;;;5093505;28;20051;-29
2023/11/22 00:31:24;;;;;;;11.80;7.40;;;;;;;;;;5094473;28;20293;-29
2023/11/22 00:33:49;;;;;;;19.50;8.45;;;;;;;;;;5093762;28;20473;-29
2023/11/22 00:36:16;;;;;;;13.23;7.93;;;;;;;;;;5093966;28;20032;-29
2023/11/22 00:38:41;;;;;;;13.10;7.45;;;;;;;;;;5093295;28;20281;-29
2023/11/22 00:41:07;;;;;;;15.27;8.30;;;;;;;;;;5093964;28;20016;-29
2023/11/22 00:43:32;;;;;;;14.30;7.78;;;;;;;;;;5093355;28;20253;-29
2023/11/22 00:45:57;;;;;;;15.20;8.20;;;;;;;;;;5093239;28;20539;-29
2023/11/22 00:48:22;;;;;;;13.87;7.80;;;;;;;;;;5093890;28;20031;-29
2023/11/22 00:50:48;;;;;;;13.63;7.60;;;;;;;;;;5093299;28;20269;-29
2023/11/22 00:53:14;;;;;;;15.50;8.02;;;;;;;;;;5093264;28;20250;-29
2023/11/22 00:55:39;;;;;;;13.10;7.95;;;;;;;;;;5093047;28;20102;-29
2023/11/22 00:58:05;;;;;;;14.48;8.57;;;;;;;;;;5095498;28;20032;-29
2023/11/22 01:00:30;;;;;;;15.40;8.15;;;;;;;;;;5097262;28;20486;-29
2023/11/22 01:02:55;;;;;;;14.48;8.40;;;;;;;;;;5097404;28;20020;-29
2023/11/22 01:05:22;;;;;;;16.90;8.52;;;;;;;;;;5097117;28;20059;-29
2023/11/22 01:07:47;;;;;;;12.23;7.70;;;;;;;;;;5097391;28;20027;-29
2023/11/22 01:10:12;;;;;;;17.20;8.57;;;;;;;;;;5097072;28;20016;-29
2023/11/22 01:12:38;;;;;;;12.77;7.90;;;;;;;;;;5096913;28;20262;-29
2023/11/22 01:15:03;;;;;;;16.35;7.72;;;;;;;;;;5097547;28;20077;-29
2023/11/22 01:17:28;;;;;;;15.00;8.07;;;;;;;;;;5096813;28;20016;-29
2023/11/22 01:19:53;;;;;;;16.25;8.48;;;;;;;;;;5078760;28;20509;-29
2023/11/22 01:22:19;;;;;;;14.82;8.30;;;;;;;;;;5078944;28;20040;-30
2023/11/22 01:24:44;;;;;;;13.60;8.35;;;;;;;;;;5097071;28;20042;-29
2023/11/22 01:27:10;;;;;;;11.88;7.25;;;;;;;;;;5097274;28;20418;-30
2023/11/22 01:29:35;;;;;;;17.10;8.43;;;;;;;;;;5096711;28;20379;-30
2023/11/22 01:32:01;;;;;;;13.65;7.72;;;;;;;;;;5096671;28;20264;-29
2023/11/22 01:34:26;;;;;;;12.32;7.28;;;;;;;;;;5096611;28;20049;-29
2023/11/22 01:36:51;;;;;;;15.88;8.05;;;;;;;;;;5097058;28;20521;-29
2023/11/22 01:39:16;;;;;;;13.52;8.23;;;;;;;;;;5096844;28;20497;-29
2023/11/22 01:41:44;;;;;;;13.73;7.87;;;;;;;;;;5097076;28;20095;-29
2023/11/22 01:44:10;;;;;;;14.05;7.65;;;;;;;;;;5096991;28;20262;-29
2023/11/22 01:46:35;;;;;;;14.90;8.45;;;;;;;;;;5096675;28;20008;-29
2023/11/22 01:49:01;;;;;;;13.65;7.65;;;;;;;;;;5096666;28;20481;-29
2023/11/22 01:51:26;;;;;;;14.23;8.02;;;;;;;;;;5096565;28;20035;-29
2023/11/22 01:53:56;;;;;;;14.05;8.32;;;;;;;;;;5096531;28;20435;-29
2023/11/22 01:56:22;;;;;;;15.48;8.20;;;;;;;;;;5096246;28;20032;-29
2023/11/22 01:58:49;;;;;;;11.55;7.13;;;;;;;;;;5096345;28;20081;-29
2023/11/22 02:01:14;;;;;;;11.93;7.43;;;;;;;;;;5096431;28;20027;-30
2023/11/22 02:03:39;;;;;;;15.37;8.00;;;;;;;;;;5096368;28;20386;-30
2023/11/22 02:06:05;;;;;;;11.50;7.18;;;;;;;;;;5095932;28;20290;-29
2023/11/22 02:08:30;;;;;;;12.45;7.32;;;;;;;;;;5095620;28;20023;-29
2023/11/22 02:10:59;;;;;;;15.43;7.57;;;;;;;;;;5095192;28;20044;-29
2023/11/22 02:13:24;;;;;;;12.88;7.70;;;;;;;;;;5096205;28;20276;-30
2023/11/22 02:15:50;;;;;;;14.00;7.40;;;;;;;;;;5096415;28;20020;-29
2023/11/22 02:18:15;;;;;;;14.57;7.45;;;;;;;;;;5095716;28;20784;-29
2023/11/22 02:20:41;;;;;;;11.10;7.07;;;;;;;;;;5095740;28;20372;-29
2023/11/22 02:23:09;;;;;;;12.82;7.22;;;;;;;;;;5095912;28;20266;-29
2023/11/22 02:25:35;;;;;;;16.70;7.55;;;;;;;;;;5095984;28;20143;-29
2023/11/22 02:28:02;;;;;;;11.48;7.35;;;;;;;;;;5095840;28;20419;-30
2023/11/22 02:30:27;;;;;;;13.23;7.28;;;;;;;;;;5096064;28;20024;-29
2023/11/22 02:32:52;;;;;;;11.05;7.35;;;;;;;;;;5095701;28;20099;-30
2023/11/22 02:35:17;;;;;;;14.30;7.27;;;;;;;;;;5095518;28;20026;-29
2023/11/22 02:37:45;;;;;;;12.05;7.45;;;;;;;;;;5095567;28;20340;-29
2023/11/22 02:40:20;;;;;;;13.80;7.53;;;;;;;;;;5095674;28;20008;-29
2023/11/22 02:42:48;;;;;;;13.75;7.75;;;;;;;;;;5095296;28;20024;-29
2023/11/22 02:45:14;;;;;;;16.55;7.05;;;;;;;;;;5095802;28;20012;-29
2023/11/22 02:47:39;;;;;;;14.77;7.70;;;;;;;;;;5095733;28;20028;-29
2023/11/22 02:50:05;;;;;;;14.52;7.90;;;;;;;;;;5095459;28;20413;-29
2023/11/22 02:52:30;;;;;;;13.05;7.22;;;;;;;;;;5095339;28;20425;-29
2023/11/22 02:54:56;;;;;;;15.52;7.72;;;;;;;;;;5095036;28;20077;-29
2023/11/22 02:57:21;;;;;;;15.93;7.70;;;;;;;;;;5095162;28;20020;-29
2023/11/22 02:59:46;;;;;;;16.33;7.75;;;;;;;;;;5095289;28;20012;-29
2023/11/22 03:02:11;;;;;;;16.17;8.27;;;;;;;;;;5094819;28;20008;-30
2023/11/22 03:04:37;;;;;;;19.63;7.47;;;;;;;;;;5094886;28;20073;-29
2023/11/22 03:07:02;;;;;;;13.68;7.93;;;;;;;;;;5095111;28;20257;-29
2023/11/22 03:09:27;;;;;;;14.85;8.05;;;;;;;;;;5094776;28;20047;-29
2023/11/22 03:11:53;;;;;;;15.73;7.90;;;;;;;;;;5095243;28;20095;-29
2023/11/22 03:14:19;;;;;;;15.70;8.95;;;;;;;;;;5094721;28;20280;-29
2023/11/22 03:16:44;;;;;;;15.00;8.43;;;;;;;;;;5094588;28;20016;-29
2023/11/22 03:19:10;;;;;;;15.73;8.60;;;;;;;;;;5094888;28;20020;-29
2023/11/22 03:21:35;;;;;;;13.68;7.97;;;;;;;;;;5094459;28;20027;-29
2023/11/22 03:24:03;;;;;;;16.10;8.52;;;;;;;;;;5095138;28;20461;-34
2023/11/22 03:26:28;;;;;;;17.38;9.13;;;;;;;;;;5094755;28;20059;-30
2023/11/22 03:28:53;;;;;;;14.10;8.20;;;;;;;;;;5094767;28;20052;-31
2023/11/22 03:31:19;;;;;;;16.63;9.50;;;;;;;;;;5094395;28;20016;-30
2023/11/22 03:33:45;;;;;;;17.47;8.30;;;;;;;;;;5094626;28;20273;-29
2023/11/22 03:36:11;;;;;;;16.25;8.07;;;;;;;;;;5094534;28;20299;-29
2023/11/22 03:38:36;;;;;;;13.85;7.40;;;;;;;;;;5094465;28;20103;-29
2023/11/22 03:41:01;;;;;;;15.03;7.83;;;;;;;;;;5094750;28;20020;-30
2023/11/22 03:43:26;;;;;;;14.30;7.20;;;;;;;;;;5094617;28;20247;-29
2023/11/22 03:45:51;;;;;;;15.30;7.40;;;;;;;;;;5094019;28;20250;-29
2023/11/22 03:48:16;;;;;;;13.97;7.20;;;;;;;;;;5094022;28;20252;-29
2023/11/22 03:50:42;;;;;;;11.02;6.95;;;;;;;;;;5094415;28;20262;-29
2023/11/22 03:53:07;;;;;;;13.02;7.78;;;;;;;;;;5094357;28;20020;-29
2023/11/22 03:55:32;;;;;;;15.73;8.48;;;;;;;;;;5093799;28;20108;-30
2023/11/22 03:57:57;;;;;;;12.27;7.50;;;;;;;;;;5094331;28;20034;-29
2023/11/22 04:00:24;;;;;;;11.70;7.40;;;;;;;;;;5093776;28;20361;-29
2023/11/22 04:02:49;;;;;;;16.63;7.65;;;;;;;;;;5094113;28;20047;-29
2023/11/22 04:05:15;;;;;;;16.30;7.93;;;;;;;;;;5094363;28;20051;-29
2023/11/22 04:07:40;;;;;;;12.73;7.18;;;;;;;;;;5094109;28;20020;-30
2023/11/22 04:10:06;;;;;;;14.65;7.72;;;;;;;;;;5093783;28;20020;-29
2023/11/22 04:12:32;;;;;;;14.60;7.90;;;;;;;;;;5094651;28;20028;-29
2023/11/22 04:14:57;;;;;;;16.30;8.70;;;;;;;;;;5093928;28;20024;-29
2023/11/22 04:17:22;;;;;;;14.90;8.33;;;;;;;;;;5093551;28;20382;-29
2023/11/22 04:19:47;;;;;;;15.53;8.70;;;;;;;;;;5093606;28;20444;-30
2023/11/22 04:22:12;;;;;;;14.90;8.53;;;;;;;;;;5093408;28;20745;-29
2023/11/22 04:24:39;;;;;;;16.83;9.60;;;;;;;;;;5093523;28;20242;-29
2023/11/22 04:27:04;;;;;;;18.15;9.88;;;;;;;;;;5093772;28;20757;-29
2023/11/22 04:29:29;;;;;;;16.80;9.37;;;;;;;;;;5093857;28;20020;-29
2023/11/22 04:31:54;;;;;;;16.40;9.40;;;;;;;;;;5092704;28;20751;-29
2023/11/22 04:34:20;;;;;;;17.30;10.07;;;;;;;;;;5093300;28;20250;-29
2023/11/22 04:36:46;;;;;;;21.40;10.30;;;;;;;;;;5093705;28;20763;-29
2023/11/22 04:39:12;;;;;;;22.13;10.85;;;;;;;;;;5093350;28;20422;-29
2023/11/22 04:41:38;;;;;;;16.23;10.20;;;;;;;;;;5093625;28;20012;-29
2023/11/22 04:44:03;;;;;;;18.85;10.77;;;;;;;;;;5093564;28;20032;-30
2023/11/22 04:46:28;;;;;;;19.63;11.13;;;;;;;;;;5093547;28;20016;-29
2023/11/22 04:48:53;;;;;;;21.52;10.85;;;;;;;;;;5093266;28;20023;-29
2023/11/22 04:51:19;;;;;;;19.43;10.53;;;;;;;;;;5093818;28;20051;-29
2023/11/22 04:53:44;;;;;;;19.23;10.47;;;;;;;;;;5093555;28;20261;-30
2023/11/22 04:56:09;;;;;;;21.80;10.45;;;;;;;;;;5093078;28;20404;-30
2023/11/22 04:58:35;;;;;;;18.27;10.27;;;;;;;;;;5093167;28;20054;-29
2023/11/22 05:01:01;;;;;;;18.40;10.70;;;;;;;;;;5075788;28;20259;-29
2023/11/22 05:03:26;;;;;;;17.88;10.48;;;;;;;;;;5093457;28;20021;-29
2023/11/22 05:05:51;;;;;;;21.37;10.67;;;;;;;;;;5075025;28;20022;-29
2023/11/22 05:08:17;;;;;;;22.40;10.43;;;;;;;;;;5093654;28;20265;-29
2023/11/22 05:10:42;;;;;;;20.40;10.18;;;;;;;;;;5093651;28;20341;-30
2023/11/22 05:13:07;;;;;;;20.00;10.67;;;;;;;;;;5093159;28;20370;-29
2023/11/22 05:15:32;;;;;;;21.43;10.43;;;;;;;;;;5093073;28;20289;-29
2023/11/22 05:17:57;;;;;;;18.53;10.33;;;;;;;;;;5093005;28;20744;-30
2023/11/22 05:20:22;;;;;;;20.93;10.03;;;;;;;;;;5093316;28;20251;-29
2023/11/22 05:22:48;;;;;;;17.95;9.95;;;;;;;;;;5093287;28;20333;-29
2023/11/22 05:25:13;;;;;;;22.83;10.40;;;;;;;;;;5093205;28;20344;-29
2023/11/22 05:27:38;;;;;;;19.90;10.15;;;;;;;;;;5092969;28;20242;-30
2023/11/22 05:30:04;;;;;;;20.73;10.33;;;;;;;;;;5093503;28;20016;-29
2023/11/22 05:32:31;;;;;;;19.85;11.15;;;;;;;;;;5092793;28;20262;-29
2023/11/22 05:34:56;;;;;;;17.38;10.32;;;;;;;;;;5093191;28;20143;-29
2023/11/22 05:37:21;;;;;;;19.77;10.38;;;;;;;;;;5092863;28;20107;-29
2023/11/22 05:39:46;;;;;;;22.15;11.18;;;;;;;;;;5093031;28;20012;-29
2023/11/22 05:42:11;;;;;;;21.87;11.33;;;;;;;;;;5093332;28;20024;-29
2023/11/22 05:44:37;;;;;;;25.80;10.87;;;;;;;;;;5095554;28;20613;-29
2023/11/22 05:47:02;;;;;;;18.67;10.17;;;;;;;;;;5096817;28;20336;-29
2023/11/22 05:49:28;;;;;;;20.10;10.60;;;;;;;;;;5096994;28;20721;-29
2023/11/22 05:51:53;;;;;;;21.25;11.13;;;;;;;;;;5078224;28;20020;-29
2023/11/22 05:54:18;;;;;;;17.70;10.50;;;;;;;;;;5096565;28;20050;-29
2023/11/22 05:56:44;;;;;;;19.60;10.40;;;;;;;;;;5096265;28;20583;-29
2023/11/22 05:59:09;;;;;;;22.52;11.38;;;;;;;;;;5096370;28;20385;-30
2023/11/22 06:01:34;;;;;;;20.88;11.05;;;;;;;;;;5096105;28;20528;-29
2023/11/22 06:03:59;;;;;;;21.17;10.70;;;;;;;;;;5096328;28;20020;-30
2023/11/22 06:06:24;;;;;;;21.33;10.73;;;;;;;;;;5096001;28;20069;-29
2023/11/22 06:08:50;;;;;;;19.55;10.23;;;;;;;;;;5096000;28;20641;-29
2023/11/22 06:11:15;;;;;;;22.85;10.73;;;;;;;;;;5096163;28;20027;-29
2023/11/22 06:13:40;;;;;;;22.08;11.55;;;;;;;;;;5096130;28;20027;-29
2023/11/22 06:16:06;;;;;;;21.92;10.80;;;;;;;;;;5095914;28;20016;-30
2023/11/22 06:18:31;;;;;;;21.65;10.98;;;;;;;;;;5095657;28;20023;-29
2023/11/22 06:20:56;;;;;;;22.08;11.25;;;;;;;;;;5095728;28;20035;-30
2023/11/22 06:23:22;;;;;;;19.50;10.65;;;;;;;;;;5077955;28;20016;-30
2023/11/22 06:25:47;;;;;;;20.30;10.65;;;;;;;;;;5096276;28;20459;-29
2023/11/22 06:28:12;;;;;;;19.97;11.07;;;;;;;;;;5096222;28;20027;-29
2023/11/22 06:30:38;;;;;;;20.92;11.25;;;;;;;;;;5095821;28;20602;-29
2023/11/22 06:33:03;;;;;;;24.02;11.18;;;;;;;;;;5095844;28;20016;-29
2023/11/22 06:35:28;;;;;;;19.08;10.20;;;;;;;;;;5095508;28;20526;-30
2023/11/22 06:37:53;;;;;;;19.20;10.85;;;;;;;;;;5095926;28;20019;-29
2023/11/22 06:40:20;;;;;;;20.98;10.65;;;;;;;;;;5095305;28;20016;-30
2023/11/22 06:42:45;;;;;;;19.00;10.02;;;;;;;;;;5095251;28;20055;-29
2023/11/22 06:45:12;;;;;;;20.90;10.00;;;;;;;;;;5095552;28;20051;-30
2023/11/22 06:47:37;;;;;;;20.17;10.50;;;;;;;;;;5095240;28;20039;-29
2023/11/22 06:50:08;;;;;;;17.90;9.60;;;;;;;;;;5095444;28;20020;-29
2023/11/22 06:52:34;;;;;;;20.88;10.30;;;;;;;;;;5095340;28;20085;-29
2023/11/22 06:54:59;;;;;;;22.13;10.40;;;;;;;;;;5094188;28;20530;-30
2023/11/22 06:57:28;;;;;;;17.80;9.97;;;;;;;;;;5095239;28;20375;-29
2023/11/22 06:59:54;;;;;;;21.70;11.05;;;;;;;;;;5094990;28;20251;-29
2023/11/22 07:02:19;;;;;;;22.02;11.95;;;;;;;;;;5095212;28;20044;-29
2023/11/22 07:04:44;;;;;;;26.42;11.85;;;;;;;;;;5094855;28;20016;-29
2023/11/22 07:07:10;;;;;;;20.77;11.45;;;;;;;;;;5095333;28;20020;-29
2023/11/22 07:09:36;;;;;;;26.23;11.65;;;;;;;;;;5094766;28;20020;-29
2023/11/22 07:12:02;;;;;;;21.63;10.48;;;;;;;;;;5094923;28;20043;-29
2023/11/22 07:14:29;;;;;;;17.65;9.60;;;;;;;;;;5094996;28;20020;-29
2023/11/22 07:16:55;;;;;;;22.52;10.93;;;;;;;;;;5094525;28;20023;-29
2023/11/22 07:19:20;;;;;;;25.33;10.40;;;;;;;;;;5094802;28;20037;-29
2023/11/22 07:21:48;;;;;;;23.50;10.30;;;;;;;;;;5094569;28;20008;-29
2023/11/22 07:24:15;;;;;;;22.58;10.30;;;;;;;;;;5094752;28;20154;-29
2023/11/22 07:26:41;;;;;;;18.60;10.07;;;;;;;;;;5094368;28;20020;-29
2023/11/22 07:29:06;;;;;;;21.70;10.40;;;;;;;;;;5094379;28;20379;-29
2023/11/22 07:31:32;;;;;;;18.23;10.03;;;;;;;;;;5094310;28;20031;-30
2023/11/22 07:33:57;;;;;;;21.25;10.60;;;;;;;;;;5094547;28;20818;-29
2023/11/22 07:36:22;;;;;;;19.25;10.10;;;;;;;;;;5094555;28;20082;-29
2023/11/22 07:38:48;;;;;;;22.60;10.20;;;;;;;;;;5094512;28;20481;-30
2023/11/22 07:41:13;;;;;;;17.40;9.85;;;;;;;;;;5094425;28;20012;-29
2023/11/22 07:43:38;;;;;;;19.60;10.32;;;;;;;;;;5094073;28;20043;-33
2023/11/22 07:46:12;;;;;;;21.27;10.77;;;;;;;;;;5094704;28;20026;-29
2023/11/22 07:48:38;;;;;;;22.50;10.38;;;;;;;;;;5094069;28;20062;-30
2023/11/22 07:51:05;;;;;;;18.15;10.35;;;;;;;;;;5094617;28;20020;-30
2023/11/22 07:53:33;;;;;;;19.80;10.63;;;;;;;;;;5094177;28;20384;-29
2023/11/22 07:55:59;;;;;;;21.60;10.52;;;;;;;;;;5093849;28;20059;-29
2023/11/22 07:58:24;;;;;;;21.30;10.60;;;;;;;;;;5093745;28;20371;-29
2023/11/22 08:00:49;;;;;;;19.20;10.10;;;;;;;;;;5093858;28;20254;-29
2023/11/22 08:03:18;;;;;;;24.60;10.35;;;;;;;;;;5094157;28;20020;-30
2023/11/22 08:05:48;;;;;;;23.15;10.35;;;;;;;;;;5094095;28;20360;-29
2023/11/22 08:08:13;;;;;;;17.02;9.52;;;;;;;;;;5094004;28;20539;-29
2023/11/22 08:10:38;;;;;;;21.80;11.02;;;;;;;;;;5093983;28;20047;-30
2023/11/22 08:13:03;;;;;;;21.77;10.10;;;;;;;;;;5093720;28;20028;-29
2023/11/22 08:15:29;;;;;;;19.20;10.33;;;;;;;;;;5094258;28;20020;-29
2023/11/22 08:17:54;;;;;;;19.58;10.55;;;;;;;;;;5093427;28;20779;-30
2023/11/22 08:20:19;;;;;;;19.75;10.48;;;;;;;;;;5093647;28;20015;-29
2023/11/22 08:22:50;;;;;;;17.30;10.18;;;;;;;;;;5093915;28;20016;-29
2023/11/22 08:25:16;;;;;;;18.98;10.93;;;;;;;;;;5094328;28;20452;-29
2023/11/22 08:27:41;;;;;;;18.65;10.38;;;;;;;;;;5093604;28;20077;-29
2023/11/22 08:30:13;;;;;;;18.63;10.38;;;;;;;;;;5093576;28;20047;-29
2023/11/22 08:32:48;;;;;;;19.02;10.40;;;;;;;;;;5093485;28;20024;-29
2023/11/22 08:35:13;;;;;;;19.92;10.50;;;;;;;;;;5093421;28;20142;-29
2023/11/22 08:37:39;;;;;;;17.85;10.40;;;;;;;;;;5093591;28;20099;-30
2023/11/22 08:40:06;;;;;;;27.50;11.45;;;;;;;;;;5093423;28;20016;-29
2023/11/22 08:42:32;;;;;;;22.35;11.65;;;;;;;;;;5093668;28;20429;-29
2023/11/22 08:44:57;;;;;;;18.73;10.93;;;;;;;;;;5093711;28;20023;-29
2023/11/22 08:47:22;;;;;;;18.25;10.60;;;;;;;;;;5093389;28;20012;-29
2023/11/22 08:49:48;;;;;;;20.37;10.87;;;;;;;;;;5093691;28;20032;-29
2023/11/22 08:52:13;;;;;;;22.63;10.43;;;;;;;;;;5093641;28;20735;-30
2023/11/22 08:54:38;;;;;;;21.08;11.25;;;;;;;;;;5075000;28;20093;-29
2023/11/22 08:57:05;;;;;;;19.63;11.17;;;;;;;;;;5093235;28;20020;-30
2023/11/22 08:59:32;;;;;;;20.05;10.65;;;;;;;;;;5094008;28;20290;-29
2023/11/22 09:01:57;;;;;;;22.42;11.55;;;;;;;;;;5093411;28;20031;-30
2023/11/22 09:04:25;;;;;;;21.03;11.50;;;;;;;;;;5075089;28;20020;-30
2023/11/22 09:06:51;;;;;;;22.63;11.13;;;;;;;;;;5093383;28;20274;-29
2023/11/22 09:09:16;;;;;;;21.63;11.15;;;;;;;;;;5093443;28;20016;-29
2023/11/22 09:11:41;;;;;;;23.70;11.23;;;;;;;;;;5093150;28;20016;-29
2023/11/22 09:14:10;;;;;;;20.85;11.32;;;;;;;;;;5093086;28;20095;-29
2023/11/22 09:16:41;;;;;;;20.55;11.18;;;;;;;;;;5094168;28;20027;-29
2023/11/22 09:19:06;;;;;;;20.25;11.35;;;;;;;;;;5095047;28;20455;-30
2023/11/22 09:21:32;;;;;;;21.17;11.00;;;;;;;;;;5097508;28;20104;-30
2023/11/22 09:23:58;;;;;;;21.02;11.48;;;;;;;;;;5097237;28;20606;-29
2023/11/22 09:26:23;;;;;;;20.25;11.18;;;;;;;;;;5096992;28;20020;-30
2023/11/22 09:28:49;;;;;;;21.38;11.15;;;;;;;;;;5097290;28;20344;-29
2023/11/22 09:31:17;;;;;;;19.40;11.10;;;;;;;;;;5096781;28;20090;-30
2023/11/22 09:33:43;;;;;;;20.00;10.55;;;;;;;;;;5096961;28;20016;-30
2023/11/22 09:36:08;;;;;;;22.70;11.47;;;;;;;;;;5096619;28;20462;-29
2023/11/22 09:38:33;;;;;;;21.02;11.52;;;;;;;;;;5097081;28;20362;-30
2023/11/22 09:40:59;;;;;;;24.17;11.87;;;;;;;;;;5096567;28;20455;-29
2023/11/22 09:43:25;;;;;;;20.45;11.90;;;;;;;;;;5096855;28;20249;-29
2023/11/22 09:45:51;;;;;;;17.90;11.07;;;;;;;;;;5096721;28;20489;-28
2023/11/22 09:48:17;;;;;;;22.30;11.85;;;;;;;;;;5096491;28;20017;-28
2023/11/22 09:51:03;;;;;;;22.38;12.05;;;;;;;;;;5096672;28;20028;-28
2023/11/22 09:53:36;;;;;;;22.38;11.70;;;;;;;;;;5095974;28;20035;-28
2023/11/22 09:56:02;;;;;;;;;;;;;;;;;;5096543;28;20483;-28
2023/11/22 09:58:29;;;;;;;22.50;12.38;;;;;;;;;;5096448;28;19912;-28
2023/11/22 10:00:55;;;;;;;21.45;11.90;;;;;;;;;;5096095;28;20489;-29
2023/11/22 10:03:20;;;;;;;22.45;12.80;;;;;;;;;;5096852;28;20095;-29
2023/11/22 10:05:46;;;;;;;25.70;11.48;;;;;;;;;;5096024;28;20023;-28
2023/11/22 10:08:11;;;;;;;26.73;12.73;;;;;;;;;;5096158;28;20012;-28
2023/11/22 10:10:36;;;;;;;22.00;12.43;;;;;;;;;;5096345;28;20035;-28
2023/11/22 10:13:03;;;;;;;22.70;12.57;;;;;;;;;;5095827;28;20028;-28
2023/11/22 10:15:28;;;;;;;23.05;12.35;;;;;;;;;;5095817;28;20032;-29
2023/11/22 10:17:57;;;;;;;22.20;12.07;;;;;;;;;;5095776;28;20027;-28
2023/11/22 10:20:39;;;;;;;20.27;12.05;;;;;;;;;;5096028;28;20459;-28
2023/11/22 10:23:08;;;;;;;21.90;12.05;;;;;;;;;;5096820;28;20474;-28
2023/11/22 10:25:33;;;;;;;21.83;11.63;;;;;;;;;;5095972;28;20412;-29
2023/11/22 10:27:58;;;;;;;20.63;11.80;;;;;;;;;;5077562;28;20158;-28
2023/11/22 10:30:24;;;;;;;22.40;12.57;;;;;;;;;;5094445;28;20260;-28
2023/11/22 10:32:50;;;;;;;24.33;12.68;;;;;;;;;;5095833;28;20265;-28
2023/11/22 10:35:16;;;;;;;21.55;12.88;;;;;;;;;;5077315;28;20352;-28
2023/11/22 10:37:44;;;;;;;20.90;11.93;;;;;;;;;;5095549;28;20099;-29
2023/11/22 10:40:11;;;;;;;22.38;12.95;;;;;;;;;;5095582;28;20044;-28
2023/11/22 10:42:40;;;;;;;21.75;13.13;;;;;;;;;;5077513;28;20024;-28
2023/11/22 10:45:07;;;;;;;22.77;13.02;;;;;;;;;;5095401;28;20024;-28
2023/11/22 10:47:34;;;;;;;20.38;12.27;;;;;;;;;;5095574;28;20093;-28
2023/11/22 10:50:01;;;;;;;22.65;12.07;;;;;;;;;;5095234;28;20410;-28
2023/11/22 10:52:26;;;;;;;21.38;13.38;;;;;;;;;;5095445;28;20399;-29
2023/11/22 10:54:55;;;;;;;19.90;12.73;;;;;;;;;;5094970;28;20052;-29
2023/11/22 10:57:22;;;;;;;19.65;12.27;;;;;;;;;;5094986;28;20028;-29
2023/11/22 10:59:53;;;;;;;26.33;13.52;;;;;;;;;;5095304;28;20008;-29
2023/11/22 11:02:21;;;;;;;21.95;13.35;;;;;;;;;;5095550;28;20059;-28
2023/11/22 11:04:55;;;;;;;22.83;12.98;;;;;;;;;;5095021;28;20027;-28
2023/11/22 11:07:22;;;;;;;21.55;12.27;;;;;;;;;;5095149;28;20390;-28
2023/11/22 11:09:50;;;;;;;22.45;12.40;;;;;;;;;;5094919;28;20418;-28
2023/11/22 11:12:16;;;;;;;23.95;13.25;;;;;;;;;;5095019;28;20095;-28
2023/11/22 11:14:41;;;;;;;25.90;12.73;;;;;;;;;;5094761;28;20055;-28
2023/11/22 11:17:07;;;;;;;23.05;13.00;;;;;;;;;;5094508;28;20020;-28
2023/11/22 11:19:33;;;;;;;22.02;12.77;;;;;;;;;;5094953;28;20012;-29
2023/11/22 11:21:59;;;;;;;20.88;12.65;;;;;;;;;;5094592;28;20098;-28
2023/11/22 11:24:24;;;;;;;22.70;12.95;;;;;;;;;;5095109;28;20102;-28
2023/11/22 11:26:54;;;;;;;21.08;12.63;;;;;;;;;;5094363;28;20020;-28
2023/11/22 11:29:31;;;;;;;23.73;12.73;;;;;;;;;;5094757;28;20386;-28
2023/11/22 11:31:57;;;;;;;23.10;13.23;;;;;;;;;;5094638;28;20100;-29
2023/11/22 11:34:23;;;;;;;24.60;13.13;;;;;;;;;;5094285;28;20410;-29
2023/11/22 11:36:53;;;;;;;24.08;13.02;;;;;;;;;;5094597;28;20020;-29
2023/11/22 11:39:24;;;;;;;23.20;12.65;;;;;;;;;;5094446;28;20023;-29
2023/11/22 11:41:49;;;;;;;27.50;12.48;;;;;;;;;;5093878;28;20028;-29
2023/11/22 11:44:14;;;;;;;25.27;13.27;;;;;;;;;;5094806;28;20031;-29
2023/11/22 11:46:39;;;;;;;22.95;13.32;;;;;;;;;;5094430;28;20016;-30
2023/11/22 11:49:08;;;;;;;23.70;13.20;;;;;;;;;;5094073;28;20034;-29
2023/11/22 11:51:34;;;;;;;24.67;14.27;;;;;;;;;;5095034;28;20024;-29
2023/11/22 11:54:00;;;;;;;23.27;13.43;;;;;;;;;;5094339;28;20012;-30
2023/11/22 11:56:26;;;;;;;24.23;12.93;;;;;;;;;;5094372;28;20031;-29
2023/11/22 11:58:52;;;;;;;19.33;12.50;;;;;;;;;;5093891;28;20016;-29
2023/11/22 12:01:19;;;;;;;22.40;12.57;;;;;;;;;;5093857;28;20019;-29
2023/11/22 12:03:45;;;;;;;19.55;12.90;;;;;;;;;;5093966;28;20039;-29
2023/11/22 12:06:14;;;;;;;20.75;13.10;;;;;;;;;;5094163;28;20042;-29
2023/11/22 12:08:39;;;;;;;17.58;12.27;;;;;;;;;;5093770;28;20016;-29
2023/11/22 12:11:06;;;;;;;18.43;12.10;;;;;;;;;;5093855;28;20077;-29
2023/11/22 12:13:32;;;;;;;19.10;12.23;;;;;;;;;;5094306;28;20269;-29
2023/11/22 12:15:58;;;;;;;17.95;12.48;;;;;;;;;;5093560;28;20031;-29
2023/11/22 12:18:23;;;;;;;20.45;13.20;;;;;;;;;;5093803;28;20024;-29
2023/11/22 12:20:58;;;;;;;18.20;12.13;;;;;;;;;;5093567;28;20371;-29
2023/11/22 12:23:24;;;;;;;17.02;12.63;;;;;;;;;;5093579;28;20253;-29
2023/11/22 12:25:53;;;;;;;17.77;12.70;;;;;;;;;;5093774;28;20378;-29
2023/11/22 12:28:18;;;;;;;17.73;12.77;;;;;;;;;;5093503;28;20081;-29
2023/11/22 12:30:44;;;;;;;20.02;12.38;;;;;;;;;;5093355;28;20062;-29
2023/11/22 12:33:10;;;;;;;20.17;12.63;;;;;;;;;;5093517;28;20020;-29
2023/11/22 12:35:35;;;;;;;19.73;12.82;;;;;;;;;;5093497;28;20261;-30
2023/11/22 12:38:01;;;;;;;16.88;12.55;;;;;;;;;;5094128;28;20443;-29
2023/11/22 12:40:33;;;;;;;22.92;13.20;;;;;;;;;;5093224;28;20012;-29
2023/11/22 12:42:59;;;;;;;20.52;12.50;;;;;;;;;;5093622;28;20070;-29
2023/11/22 12:45:25;;;;;;;20.67;12.43;;;;;;;;;;5093404;28;20016;-29
2023/11/22 12:47:51;;;;;;;18.92;12.93;;;;;;;;;;5093590;28;20077;-30
2023/11/22 12:50:31;;;;;;;23.83;13.18;;;;;;;;;;5093423;28;20094;-29
2023/11/22 12:52:57;;;;;;;21.88;13.15;;;;;;;;;;5093459;28;20066;-29
2023/11/22 12:55:22;;;;;;;21.67;13.65;;;;;;;;;;5097246;28;20067;-29
2023/11/22 12:58:02;;;;;;;22.02;12.88;;;;;;;;;;5097633;28;20036;-29
2023/11/22 13:00:29;;;;;;;22.92;13.55;;;;;;;;;;5097619;28;20023;-29
2023/11/22 13:02:54;;;;;;;24.10;13.57;;;;;;;;;;5097599;28;20062;-29
2023/11/22 13:05:20;;;;;;;26.27;13.35;;;;;;;;;;5097292;28;20017;-29
2023/11/22 13:07:45;;;;;;;25.80;15.20;;;;;;;;;;5097677;28;20034;-29
2023/11/22 13:10:10;;;;;;;24.03;14.57;;;;;;;;;;5097723;28;20015;-29
2023/11/22 13:12:35;;;;;;;24.70;13.40;;;;;;;;;;5097663;28;20324;-29
2023/11/22 13:15:01;;;;;;;24.90;13.37;;;;;;;;;;5097047;28;20717;-29
2023/11/22 13:17:26;;;;;;;23.48;13.38;;;;;;;;;;5096929;28;20274;-29
2023/11/22 13:19:51;;;;;;;22.40;13.17;;;;;;;;;;5096929;28;20012;-29
2023/11/22 13:22:16;;;;;;;20.83;12.87;;;;;;;;;;5096849;28;20261;-29
2023/11/22 13:24:41;;;;;;;20.13;12.23;;;;;;;;;;5096310;28;20255;-29
2023/11/22 13:27:09;;;;;;;23.07;13.23;;;;;;;;;;5096772;28;20020;-29
2023/11/22 13:29:34;;;;;;;19.85;12.18;;;;;;;;;;5077543;28;20335;-29
2023/11/22 13:31:59;;;;;;;25.95;13.13;;;;;;;;;;5096651;28;20028;-29
2023/11/22 13:34:24;;;;;;;20.77;12.60;;;;;;;;;;5097143;28;20058;-29
2023/11/22 13:36:50;;;;;;;22.30;12.43;;;;;;;;;;5096914;28;20717;-29
2023/11/22 13:39:15;;;;;;;25.63;13.15;;;;;;;;;;5096733;28;20340;-29
2023/11/22 13:41:40;;;;;;;20.25;12.43;;;;;;;;;;5096664;28;20119;-29
2023/11/22 13:44:05;;;;;;;23.98;12.85;;;;;;;;;;5096751;28;20165;-28
2023/11/22 13:46:31;;;;;;;23.63;12.57;;;;;;;;;;5096358;28;20031;-28
2023/11/22 13:48:57;;;;;;;21.20;11.63;;;;;;;;;;5096396;28;20290;-29
2023/11/22 13:51:24;;;;;;;22.08;12.63;;;;;;;;;;5096600;28;20262;-28
2023/11/22 13:53:53;;;;;;;23.05;13.18;;;;;;;;;;5096584;28;20486;-29
2023/11/22 13:56:18;;;;;;;22.58;13.07;;;;;;;;;;5096044;28;20522;-28
2023/11/22 13:58:43;;;;;;;21.17;12.90;;;;;;;;;;5096467;28;20023;-29
2023/11/22 14:01:13;;;;;;;22.73;12.23;;;;;;;;;;5096250;28;20596;-28
2023/11/22 14:03:39;;;;;;;21.88;12.27;;;;;;;;;;5096299;28;20258;-29
2023/11/22 14:06:04;;;;;;;23.10;12.38;;;;;;;;;;5095826;28;20019;-29
2023/11/22 14:08:29;;;;;;;26.55;13.35;;;;;;;;;;5077784;28;20016;-29
2023/11/22 14:10:55;;;;;;;19.65;12.27;;;;;;;;;;5095584;28;20074;-29
2023/11/22 14:13:20;;;;;;;26.30;13.32;;;;;;;;;;5096167;28;20024;-29
2023/11/22 14:15:46;;;;;;;22.67;12.82;;;;;;;;;;5096133;28;20047;-29